sensor_id;sensor_type;location;lat;lon;timestamp;pressure;altitude;pressure_sealevel;temperature;humidity
48553;BME280;34335;51.566;6.994;2023-12-29T00:00:30;100308.69;;;9.58;100.00
48553;BME280;34335;51.566;6.994;2023-12-29T00:02:55;100313.94;;;9.47;100.00
48553;BME280;34335;51.566;6.994;2023-12-29T00:05:20;100319.94;;;9.54;100.00
48553;BME280;34335;51.566;6.994;2023-12-29T00:07:46;100298.34;;;9.47;100.00
48553;BME280;34335;51.566;6.994;2023-12-29T00:10:11;100319.97;;;9.50;100.00
48553;BME280;34335;51.566;6.994;2023-12-29T00:12:36;100317.38;;;9.52;100.00
48553;BME280;34335;51.566;6.994;2023-12-29T00:15:02;100297.47;;;9.51;100.00
48553;BME280;34335;51.566;6.994;2023-12-29T00:17:27;100310.44;;;9.56;100.00
48553;BME280;34335;51.566;6.994;2023-12-29T00:19:53;100296.59;;;9.52;100.00
48553;BME280;34335;51.566;6.994;2023-12-29T00:22:19;100306.13;;;9.56;100.00
48553;BME280;34335;51.566;6.994;2023-12-29T00:24:44;100316.50;;;9.51;100.00
48553;BME280;34335;51.566;6.994;2023-12-29T00:27:10;100305.25;;;9.54;100.00
48553;BME280;34335;51.566;6.994;2023-12-29T00:29:35;100306.09;;;9.62;100.00
48553;BME280;34335;51.566;6.994;2023-12-29T00:32:00;100305.22;;;9.56;100.00
48553;BME280;34335;51.566;6.994;2023-12-29T00:34:27;100306.09;;;9.61;100.00
48553;BME280;34335;51.566;6.994;2023-12-29T00:36:52;100305.22;;;9.59;100.00
48553;BME280;34335;51.566;6.994;2023-12-29T00:39:17;100295.72;;;9.58;100.00
48553;BME280;34335;51.566;6.994;2023-12-29T00:41:43;100309.53;;;9.61;100.00
48553;BME280;34335;51.566;6.994;2023-12-29T00:44:08;100303.50;;;9.62;100.00
48553;BME280;34335;51.566;6.994;2023-12-29T00:46:33;100308.66;;;9.69;100.00
48553;BME280;34335;51.566;6.994;2023-12-29T00:48:59;100286.19;;;9.64;100.00
48553;BME280;34335;51.566;6.994;2023-12-29T00:51:24;100293.13;;;9.56;100.00
48553;BME280;34335;51.566;6.994;2023-12-29T00:53:49;100293.13;;;9.58;100.00
48553;BME280;34335;51.566;6.994;2023-12-29T00:56:15;100274.94;;;9.58;100.00
48553;BME280;34335;51.566;6.994;2023-12-29T00:58:40;100271.47;;;9.57;100.00
48553;BME280;34335;51.566;6.994;2023-12-29T01:01:07;100277.56;;;9.53;100.00
48553;BME280;34335;51.566;6.994;2023-12-29T01:03:33;100274.06;;;9.57;100.00
48553;BME280;34335;51.566;6.994;2023-12-29T01:05:58;100266.28;;;9.59;100.00
48553;BME280;34335;51.566;6.994;2023-12-29T01:08:24;100273.22;;;9.60;100.00
48553;BME280;34335;51.566;6.994;2023-12-29T01:10:49;100268.03;;;9.57;100.00
48553;BME280;34335;51.566;6.994;2023-12-29T01:13:14;100274.09;;;9.54;100.00
48553;BME280;34335;51.566;6.994;2023-12-29T01:15:39;100263.69;;;9.57;100.00
48553;BME280;34335;51.566;6.994;2023-12-29T01:18:09;100248.09;;;9.60;100.00
48553;BME280;34335;51.566;6.994;2023-12-29T01:20:34;100253.28;;;9.57;100.00
48553;BME280;34335;51.566;6.994;2023-12-29T01:22:59;100251.56;;;9.62;100.00
48553;BME280;34335;51.566;6.994;2023-12-29T01:25:25;100235.13;;;9.57;100.00
48553;BME280;34335;51.566;6.994;2023-12-29T01:27:50;100237.72;;;9.57;100.00
48553;BME280;34335;51.566;6.994;2023-12-29T01:30:15;100242.88;;;9.68;100.00
48553;BME280;34335;51.566;6.994;2023-12-29T01:32:41;100244.63;;;9.69;100.00
48553;BME280;34335;51.566;6.994;2023-12-29T01:35:06;100250.69;;;9.62;100.00
48553;BME280;34335;51.566;6.994;2023-12-29T01:37:31;100244.59;;;9.71;100.00
48553;BME280;34335;51.566;6.994;2023-12-29T01:39:57;100241.19;;;9.61;100.00
48553;BME280;34335;51.566;6.994;2023-12-29T01:42:22;100229.09;;;9.60;100.00
48553;BME280;34335;51.566;6.994;2023-12-29T01:44:48;100227.31;;;9.65;100.00
48553;BME280;34335;51.566;6.994;2023-12-29T01:47:17;100236.81;;;9.66;100.00
48553;BME280;34335;51.566;6.994;2023-12-29T01:49:46;100229.91;;;9.71;100.00
48553;BME280;34335;51.566;6.994;2023-12-29T01:52:12;100227.31;;;9.66;100.00
48553;BME280;34335;51.566;6.994;2023-12-29T01:54:39;100221.31;;;9.54;100.00
48553;BME280;34335;51.566;6.994;2023-12-29T01:57:07;100235.19;;;9.39;100.00
48553;BME280;34335;51.566;6.994;2023-12-29T01:59:34;100243.91;;;9.27;100.00
48553;BME280;34335;51.566;6.994;2023-12-29T02:02:01;100243.94;;;9.20;100.00
48553;BME280;34335;51.566;6.994;2023-12-29T02:04:27;100238.75;;;9.10;100.00
48553;BME280;34335;51.566;6.994;2023-12-29T02:06:54;100243.09;;;9.01;100.00
48553;BME280;34335;51.566;6.994;2023-12-29T02:09:19;100238.81;;;8.83;100.00
48553;BME280;34335;51.566;6.994;2023-12-29T02:11:46;100258.72;;;8.75;100.00
48553;BME280;34335;51.566;6.994;2023-12-29T02:14:11;100256.09;;;8.66;100.00
48553;BME280;34335;51.566;6.994;2023-12-29T02:21:46;100254.34;;;8.41;100.00
48553;BME280;34335;51.566;6.994;2023-12-29T02:24:11;100272.47;;;8.35;100.00
48553;BME280;34335;51.566;6.994;2023-12-29T02:26:37;100266.41;;;8.33;100.00
48553;BME280;34335;51.566;6.994;2023-12-29T02:29:04;100256.91;;;8.32;100.00
48553;BME280;34335;51.566;6.994;2023-12-29T02:31:34;100252.59;;;8.34;100.00
48553;BME280;34335;51.566;6.994;2023-12-29T02:34:03;100244.81;;;8.30;100.00
48553;BME280;34335;51.566;6.994;2023-12-29T02:36:31;100254.31;;;8.26;100.00
48553;BME280;34335;51.566;6.994;2023-12-29T02:38:57;100235.34;;;8.25;100.00
48553;BME280;34335;51.566;6.994;2023-12-29T02:41:23;100265.56;;;8.26;100.00
48553;BME280;34335;51.566;6.994;2023-12-29T02:43:49;100272.47;;;8.29;100.00
48553;BME280;34335;51.566;6.994;2023-12-29T02:46:15;100273.34;;;8.26;100.00
48553;BME280;34335;51.566;6.994;2023-12-29T02:48:40;100246.56;;;8.29;100.00
48553;BME280;34335;51.566;6.994;2023-12-29T02:51:06;100219.75;;;8.24;100.00
48553;BME280;34335;51.566;6.994;2023-12-29T02:53:33;100173.16;;;8.21;100.00
48553;BME280;34335;51.566;6.994;2023-12-29T02:55:58;100176.59;;;8.17;100.00
48553;BME280;34335;51.566;6.994;2023-12-29T02:58:23;100211.13;;;8.20;100.00
48553;BME280;34335;51.566;6.994;2023-12-29T03:00:48;100216.31;;;8.23;100.00
48553;BME280;34335;51.566;6.994;2023-12-29T03:03:14;100217.19;;;8.19;100.00
48553;BME280;34335;51.566;6.994;2023-12-29T03:05:39;100217.19;;;8.21;100.00
48553;BME280;34335;51.566;6.994;2023-12-29T03:08:04;100218.03;;;8.21;100.00
48553;BME280;34335;51.566;6.994;2023-12-29T03:10:30;100226.69;;;8.23;100.00
48553;BME280;34335;51.566;6.994;2023-12-29T03:12:55;100216.34;;;8.26;100.00
48553;BME280;34335;51.566;6.994;2023-12-29T03:15:20;100224.09;;;8.28;100.00
48553;BME280;34335;51.566;6.994;2023-12-29T03:17:46;100211.16;;;8.36;100.00
48553;BME280;34335;51.566;6.994;2023-12-29T03:20:11;100211.16;;;8.40;100.00
48553;BME280;34335;51.566;6.994;2023-12-29T03:22:36;100215.47;;;8.38;100.00
48553;BME280;34335;51.566;6.994;2023-12-29T03:25:02;100215.47;;;8.38;100.00
48553;BME280;34335;51.566;6.994;2023-12-29T03:27:27;100226.72;;;8.48;100.00
48553;BME280;34335;51.566;6.994;2023-12-29T03:29:52;100199.94;;;8.54;100.00
48553;BME280;34335;51.566;6.994;2023-12-29T03:32:18;100203.41;;;8.50;100.00
48553;BME280;34335;51.566;6.994;2023-12-29T03:34:44;100206.00;;;8.50;100.00
48553;BME280;34335;51.566;6.994;2023-12-29T03:37:09;100204.28;;;8.53;100.00
48553;BME280;34335;51.566;6.994;2023-12-29T03:39:34;100204.25;;;8.60;100.00
48553;BME280;34335;51.566;6.994;2023-12-29T03:42:00;100201.66;;;8.67;100.00
48553;BME280;34335;51.566;6.994;2023-12-29T03:44:26;100207.69;;;8.68;100.00
48553;BME280;34335;51.566;6.994;2023-12-29T03:46:51;100188.69;;;8.72;100.00
48553;BME280;34335;51.566;6.994;2023-12-29T03:49:17;100196.47;;;8.67;100.00
48553;BME280;34335;51.566;6.994;2023-12-29T03:51:42;100194.75;;;8.71;100.00
48553;BME280;34335;51.566;6.994;2023-12-29T03:54:07;100193.03;;;8.68;100.00
48553;BME280;34335;51.566;6.994;2023-12-29T03:56:32;100185.22;;;8.75;100.00
48553;BME280;34335;51.566;6.994;2023-12-29T03:58:58;100194.75;;;8.66;100.00
48553;BME280;34335;51.566;6.994;2023-12-29T04:01:23;100184.38;;;8.68;100.00
48553;BME280;34335;51.566;6.994;2023-12-29T04:03:50;100184.38;;;8.69;100.00
48553;BME280;34335;51.566;6.994;2023-12-29T04:06:15;100189.56;;;8.71;100.00
48553;BME280;34335;51.566;6.994;2023-12-29T04:08:40;100193.88;;;8.75;100.00
48553;BME280;34335;51.566;6.994;2023-12-29T04:11:06;100186.09;;;8.70;100.00
48553;BME280;34335;51.566;6.994;2023-12-29T04:13:31;100182.63;;;8.67;100.00
48553;BME280;34335;51.566;6.994;2023-12-29T04:15:57;100179.19;;;8.79;100.00
48553;BME280;34335;51.566;6.994;2023-12-29T04:18:23;100177.47;;;8.73;100.00
48553;BME280;34335;51.566;6.994;2023-12-29T04:20:49;100179.19;;;8.79;100.00
48553;BME280;34335;51.566;6.994;2023-12-29T04:23:14;100182.63;;;8.75;100.00
48553;BME280;34335;51.566;6.994;2023-12-29T04:25:40;100180.88;;;8.83;100.00
48553;BME280;34335;51.566;6.994;2023-12-29T04:28:06;100183.47;;;8.95;100.00
48553;BME280;34335;51.566;6.994;2023-12-29T04:30:32;100180.00;;;8.92;100.00
48553;BME280;34335;51.566;6.994;2023-12-29T04:32:57;100178.28;;;8.87;100.00
48553;BME280;34335;51.566;6.994;2023-12-29T04:35:23;100180.91;;;8.86;100.00
48553;BME280;34335;51.566;6.994;2023-12-29T04:37:48;100194.69;;;8.91;100.00
48553;BME280;34335;51.566;6.994;2023-12-29T04:40:14;100191.22;;;9.01;100.00
48553;BME280;34335;51.566;6.994;2023-12-29T04:42:40;100189.47;;;9.11;100.00
48553;BME280;34335;51.566;6.994;2023-12-29T04:45:06;100188.59;;;9.12;100.00
48553;BME280;34335;51.566;6.994;2023-12-29T04:47:31;100195.50;;;9.15;100.00
48553;BME280;34335;51.566;6.994;2023-12-29T04:49:56;100200.69;;;9.12;100.00
48553;BME280;34335;51.566;6.994;2023-12-29T04:52:22;100198.97;;;9.11;100.00
48553;BME280;34335;51.566;6.994;2023-12-29T04:54:47;100198.09;;;9.15;100.00
48553;BME280;34335;51.566;6.994;2023-12-29T04:57:12;100195.50;;;9.18;100.00
48553;BME280;34335;51.566;6.994;2023-12-29T04:59:38;100200.69;;;9.16;100.00
48553;BME280;34335;51.566;6.994;2023-12-29T05:02:03;100196.34;;;9.18;100.00
48553;BME280;34335;51.566;6.994;2023-12-29T05:04:28;100161.78;;;9.18;100.00
48553;BME280;34335;51.566;6.994;2023-12-29T05:06:54;100186.00;;;9.17;100.00
48553;BME280;34335;51.566;6.994;2023-12-29T05:09:19;100204.13;;;9.15;100.00
48553;BME280;34335;51.566;6.994;2023-12-29T05:11:44;100209.31;;;9.20;100.00
48553;BME280;34335;51.566;6.994;2023-12-29T05:14:10;100211.94;;;9.18;100.00
48553;BME280;34335;51.566;6.994;2023-12-29T05:16:35;100194.63;;;9.25;100.00
48553;BME280;34335;51.566;6.994;2023-12-29T05:19:00;100202.41;;;9.19;100.00
48553;BME280;34335;51.566;6.994;2023-12-29T05:21:26;100207.59;;;9.17;100.00
48553;BME280;34335;51.566;6.994;2023-12-29T05:23:51;100211.03;;;9.21;100.00
48553;BME280;34335;51.566;6.994;2023-12-29T05:26:17;100203.28;;;9.15;100.00
48553;BME280;34335;51.566;6.994;2023-12-29T05:28:42;100195.47;;;9.24;100.00
48553;BME280;34335;51.566;6.994;2023-12-29T05:31:08;100207.53;;;9.33;100.00
48553;BME280;34335;51.566;6.994;2023-12-29T05:33:33;100198.06;;;9.26;100.00
48553;BME280;34335;51.566;6.994;2023-12-29T05:36:05;100211.03;;;9.21;100.00
48553;BME280;34335;51.566;6.994;2023-12-29T05:38:31;100194.63;;;9.22;100.00
48553;BME280;34335;51.566;6.994;2023-12-29T05:40:56;100201.50;;;9.29;100.00
48553;BME280;34335;51.566;6.994;2023-12-29T05:43:21;100199.81;;;9.22;100.00
48553;BME280;34335;51.566;6.994;2023-12-29T05:45:47;100201.53;;;9.18;100.00
48553;BME280;34335;51.566;6.994;2023-12-29T05:48:12;100201.56;;;9.17;100.00
48553;BME280;34335;51.566;6.994;2023-12-29T05:50:37;100207.59;;;9.17;100.00
48553;BME280;34335;51.566;6.994;2023-12-29T05:53:03;100210.19;;;9.20;100.00
48553;BME280;34335;51.566;6.994;2023-12-29T05:55:30;100211.94;;;9.22;100.00
48553;BME280;34335;51.566;6.994;2023-12-29T05:57:55;100212.75;;;9.27;100.00
48553;BME280;34335;51.566;6.994;2023-12-29T06:00:21;100198.91;;;9.29;100.00
48553;BME280;34335;51.566;6.994;2023-12-29T06:02:46;100220.56;;;9.25;100.00
48553;BME280;34335;51.566;6.994;2023-12-29T06:05:11;100206.72;;;9.23;100.00
48553;BME280;34335;51.566;6.994;2023-12-29T06:07:37;100208.44;;;9.21;100.00
48553;BME280;34335;51.566;6.994;2023-12-29T06:10:03;100217.97;;;9.22;100.00
48553;BME280;34335;51.566;6.994;2023-12-29T06:12:28;100217.13;;;9.18;100.00
48553;BME280;34335;51.566;6.994;2023-12-29T06:14:53;100220.56;;;9.22;100.00
48553;BME280;34335;51.566;6.994;2023-12-29T06:17:19;100224.88;;;9.20;100.00
48553;BME280;34335;51.566;6.994;2023-12-29T06:19:44;100219.75;;;9.12;100.00
48553;BME280;34335;51.566;6.994;2023-12-29T06:22:09;100221.44;;;9.16;100.00
48553;BME280;34335;51.566;6.994;2023-12-29T06:24:37;100232.69;;;9.11;100.00
48553;BME280;34335;51.566;6.994;2023-12-29T06:27:02;100217.13;;;9.11;100.00
48553;BME280;34335;51.566;6.994;2023-12-29T06:29:28;100229.22;;;9.16;100.00
48553;BME280;34335;51.566;6.994;2023-12-29T06:31:53;100230.94;;;9.19;100.00
48553;BME280;34335;51.566;6.994;2023-12-29T06:34:18;100223.16;;;9.20;100.00
48553;BME280;34335;51.566;6.994;2023-12-29T06:36:44;100231.81;;;9.23;100.00
48553;BME280;34335;51.566;6.994;2023-12-29T06:39:09;100206.75;;;9.22;100.00
48553;BME280;34335;51.566;6.994;2023-12-29T06:41:34;100220.56;;;9.17;100.00
48553;BME280;34335;51.566;6.994;2023-12-29T06:44:00;100220.56;;;9.19;100.00
48553;BME280;34335;51.566;6.994;2023-12-29T06:46:25;100227.50;;;9.18;100.00
48553;BME280;34335;51.566;6.994;2023-12-29T06:48:50;100223.16;;;9.19;100.00
48553;BME280;34335;51.566;6.994;2023-12-29T06:51:17;100228.34;;;9.19;100.00
48553;BME280;34335;51.566;6.994;2023-12-29T06:53:43;100220.56;;;9.22;100.00
48553;BME280;34335;51.566;6.994;2023-12-29T06:56:12;100211.06;;;9.15;100.00
48553;BME280;34335;51.566;6.994;2023-12-29T06:58:38;100206.75;;;9.15;100.00
48553;BME280;34335;51.566;6.994;2023-12-29T07:01:03;100201.56;;;9.11;100.00
48553;BME280;34335;51.566;6.994;2023-12-29T07:03:28;100202.44;;;9.08;100.00
48553;BME280;34335;51.566;6.994;2023-12-29T07:05:53;100207.63;;;9.16;100.00
48553;BME280;34335;51.566;6.994;2023-12-29T07:08:19;100202.44;;;9.13;100.00
48553;BME280;34335;51.566;6.994;2023-12-29T07:10:44;100199.00;;;9.04;100.00
48553;BME280;34335;51.566;6.994;2023-12-29T07:13:09;100204.22;;;8.95;100.00
48553;BME280;34335;51.566;6.994;2023-12-29T07:15:35;100199.88;;;8.94;100.00
48553;BME280;34335;51.566;6.994;2023-12-29T07:18:00;100194.72;;;8.88;100.00
48553;BME280;34335;51.566;6.994;2023-12-29T07:20:25;100192.97;;;8.81;100.00
48553;BME280;34335;51.566;6.994;2023-12-29T07:22:50;100190.41;;;8.78;100.00
48553;BME280;34335;51.566;6.994;2023-12-29T07:25:16;100193.88;;;8.73;100.00
48553;BME280;34335;51.566;6.994;2023-12-29T07:27:41;100197.31;;;8.72;100.00
48553;BME280;34335;51.566;6.994;2023-12-29T07:30:07;100193.03;;;8.64;100.00
48553;BME280;34335;51.566;6.994;2023-12-29T07:32:33;100201.66;;;8.70;100.00
48553;BME280;34335;51.566;6.994;2023-12-29T07:34:59;100197.34;;;8.69;100.00
48553;BME280;34335;51.566;6.994;2023-12-29T07:37:24;100183.50;;;8.72;100.00
48553;BME280;34335;51.566;6.994;2023-12-29T07:39:49;100176.59;;;8.74;100.00
48553;BME280;34335;51.566;6.994;2023-12-29T07:42:14;100183.50;;;8.78;100.00
48553;BME280;34335;51.566;6.994;2023-12-29T07:44:42;100180.91;;;8.80;100.00
48553;BME280;34335;51.566;6.994;2023-12-29T07:47:08;100180.03;;;8.75;100.00
48553;BME280;34335;51.566;6.994;2023-12-29T07:49:33;100187.81;;;8.71;100.00
48553;BME280;34335;51.566;6.994;2023-12-29T07:51:58;100176.59;;;8.66;100.00
48553;BME280;34335;51.566;6.994;2023-12-29T07:54:24;100174.00;;;8.68;100.00
48553;BME280;34335;51.566;6.994;2023-12-29T07:56:49;100183.50;;;8.69;100.00
48553;BME280;34335;51.566;6.994;2023-12-29T07:59:15;100179.22;;;8.69;100.00
48553;BME280;34335;51.566;6.994;2023-12-29T08:01:41;100174.84;;;8.71;100.00
48553;BME280;34335;51.566;6.994;2023-12-29T08:04:06;100181.78;;;8.68;100.00
48553;BME280;34335;51.566;6.994;2023-12-29T08:06:32;100184.38;;;8.72;100.00
48553;BME280;34335;51.566;6.994;2023-12-29T08:08:57;100198.19;;;8.78;100.00
48553;BME280;34335;51.566;6.994;2023-12-29T08:11:22;100200.78;;;8.79;100.00
48553;BME280;34335;51.566;6.994;2023-12-29T08:13:48;100209.44;;;8.84;100.00
48553;BME280;34335;51.566;6.994;2023-12-29T08:16:14;100193.88;;;8.84;100.00
48553;BME280;34335;51.566;6.994;2023-12-29T08:18:42;100195.56;;;8.81;100.00
48553;BME280;34335;51.566;6.994;2023-12-29T08:21:07;100204.25;;;8.81;100.00
48553;BME280;34335;51.566;6.994;2023-12-29T08:23:33;100212.00;;;8.83;100.00
48553;BME280;34335;51.566;6.994;2023-12-29T08:25:58;100195.56;;;8.90;100.00
48553;BME280;34335;51.566;6.994;2023-12-29T08:28:24;100200.75;;;8.85;100.00
48553;BME280;34335;51.566;6.994;2023-12-29T08:30:49;100197.31;;;8.82;100.00
48553;BME280;34335;51.566;6.994;2023-12-29T08:33:14;100187.81;;;8.84;100.00
48553;BME280;34335;51.566;6.994;2023-12-29T08:35:40;100164.47;;;8.84;100.00
48553;BME280;34335;51.566;6.994;2023-12-29T08:38:06;100186.09;;;8.78;100.00
48553;BME280;34335;51.566;6.994;2023-12-29T08:40:31;100175.72;;;8.77;100.00
48553;BME280;34335;51.566;6.994;2023-12-29T08:42:57;100160.16;;;8.70;100.00
48553;BME280;34335;51.566;6.994;2023-12-29T08:45:22;100180.06;;;8.68;100.00
48553;BME280;34335;51.566;6.994;2023-12-29T08:47:47;100185.22;;;8.67;100.00
48553;BME280;34335;51.566;6.994;2023-12-29T08:50:13;100175.75;;;8.67;100.00
48553;BME280;34335;51.566;6.994;2023-12-29T08:52:39;100189.56;;;8.68;100.00
48553;BME280;34335;51.566;6.994;2023-12-29T08:55:05;100197.34;;;8.68;100.00
48553;BME280;34335;51.566;6.994;2023-12-29T08:57:31;100199.94;;;8.68;100.00
48553;BME280;34335;51.566;6.994;2023-12-29T08:59:56;100208.56;;;8.71;100.00
48553;BME280;34335;51.566;6.994;2023-12-29T09:02:22;100209.44;;;8.72;100.00
48553;BME280;34335;51.566;6.994;2023-12-29T09:04:47;100193.03;;;8.73;100.00
48553;BME280;34335;51.566;6.994;2023-12-29T09:07:12;100216.34;;;8.75;100.00
48553;BME280;34335;51.566;6.994;2023-12-29T09:09:38;100188.69;;;8.73;100.00
48553;BME280;34335;51.566;6.994;2023-12-29T09:12:03;100211.16;;;8.75;100.00
48553;BME280;34335;51.566;6.994;2023-12-29T09:14:28;100205.09;;;8.72;100.00
48553;BME280;34335;51.566;6.994;2023-12-29T09:16:56;100191.28;;;8.73;100.00
48553;BME280;34335;51.566;6.994;2023-12-29T09:19:21;100198.19;;;8.78;100.00
48553;BME280;34335;51.566;6.994;2023-12-29T09:21:46;100195.59;;;8.76;100.00
48553;BME280;34335;51.566;6.994;2023-12-29T09:24:12;100191.28;;;8.78;100.00
48553;BME280;34335;51.566;6.994;2023-12-29T09:26:37;100199.91;;;8.80;100.00
48553;BME280;34335;51.566;6.994;2023-12-29T09:29:02;100201.63;;;8.86;100.00
48553;BME280;34335;51.566;6.994;2023-12-29T09:31:28;100211.13;;;8.90;100.00
48553;BME280;34335;51.566;6.994;2023-12-29T09:33:53;100218.91;;;8.90;100.00
48553;BME280;34335;51.566;6.994;2023-12-29T09:36:18;100213.72;;;8.90;100.00
48553;BME280;34335;51.566;6.994;2023-12-29T09:38:43;100238.78;;;8.94;100.00
48553;BME280;34335;51.566;6.994;2023-12-29T09:41:14;100220.59;;;9.00;100.00
48553;BME280;34335;51.566;6.994;2023-12-29T09:43:40;100224.94;;;9.01;100.00
48553;BME280;34335;51.566;6.994;2023-12-29T09:46:08;100232.72;;;9.01;100.00
48553;BME280;34335;51.566;6.994;2023-12-29T09:48:34;100237.03;;;9.02;100.00
48553;BME280;34335;51.566;6.994;2023-12-29T09:51:01;100243.09;;;9.03;100.00
48553;BME280;34335;51.566;6.994;2023-12-29T09:53:26;100242.22;;;8.99;100.00
48553;BME280;34335;51.566;6.994;2023-12-29T09:55:53;100236.19;;;8.97;100.00
48553;BME280;34335;51.566;6.994;2023-12-29T09:58:21;100222.38;;;8.98;100.00
48553;BME280;34335;51.566;6.994;2023-12-29T10:00:49;100229.25;;;9.02;100.00
48553;BME280;34335;51.566;6.994;2023-12-29T10:03:14;100221.47;;;9.07;100.00
48553;BME280;34335;51.566;6.994;2023-12-29T10:05:40;100239.63;;;9.06;100.00
48553;BME280;34335;51.566;6.994;2023-12-29T10:08:07;100242.22;;;9.07;100.00
48553;BME280;34335;51.566;6.994;2023-12-29T10:10:35;100230.97;;;9.10;100.00
48553;BME280;34335;51.566;6.994;2023-12-29T10:13:03;100212.78;;;9.19;100.00
48553;BME280;34335;51.566;6.994;2023-12-29T10:15:42;100211.06;;;9.23;100.00
48553;BME280;34335;51.566;6.994;2023-12-29T10:18:37;100215.41;;;9.16;100.00
48553;BME280;34335;51.566;6.994;2023-12-29T10:21:27;100215.41;;;9.16;100.00
48553;BME280;34335;51.566;6.994;2023-12-29T10:24:02;100229.25;;;9.18;100.00
48553;BME280;34335;51.566;6.994;2023-12-29T10:26:28;100216.25;;;9.19;100.00
48553;BME280;34335;51.566;6.994;2023-12-29T10:28:54;100217.97;;;9.20;100.00
48553;BME280;34335;51.566;6.994;2023-12-29T10:31:22;100201.56;;;9.17;100.00
48553;BME280;34335;51.566;6.994;2023-12-29T10:33:48;100213.69;;;9.10;100.00
48553;BME280;34335;51.566;6.994;2023-12-29T10:36:15;100214.56;;;9.12;100.00
48553;BME280;34335;51.566;6.994;2023-12-29T10:38:41;100221.47;;;9.09;100.00
48553;BME280;34335;51.566;6.994;2023-12-29T10:41:17;100224.06;;;9.09;100.00
48553;BME280;34335;51.566;6.994;2023-12-29T10:43:44;100217.16;;;9.09;100.00
48553;BME280;34335;51.566;6.994;2023-12-29T10:46:10;100216.28;;;9.09;100.00
48553;BME280;34335;51.566;6.994;2023-12-29T10:48:37;100225.78;;;9.10;100.00
48553;BME280;34335;51.566;6.994;2023-12-29T10:51:06;100237.03;;;9.10;100.00
48553;BME280;34335;51.566;6.994;2023-12-29T10:53:32;100228.34;;;9.14;100.00
48553;BME280;34335;51.566;6.994;2023-12-29T10:55:58;100206.75;;;9.15;100.00
48553;BME280;34335;51.566;6.994;2023-12-29T10:58:24;100223.16;;;9.19;100.00
48553;BME280;34335;51.566;6.994;2023-12-29T11:00:53;100224.88;;;9.20;100.00
48553;BME280;34335;51.566;6.994;2023-12-29T11:03:18;100213.63;;;9.24;100.00
48553;BME280;34335;51.566;6.994;2023-12-29T11:05:44;100231.78;;;9.26;100.00
48553;BME280;34335;51.566;6.994;2023-12-29T11:08:17;100230.06;;;9.28;100.00
48553;BME280;34335;51.566;6.994;2023-12-29T11:10:43;100213.59;;;9.35;100.00
48553;BME280;34335;51.566;6.994;2023-12-29T11:13:11;100224.84;;;9.35;100.00
48553;BME280;34335;51.566;6.994;2023-12-29T11:15:44;100211.84;;;9.39;100.00
48553;BME280;34335;51.566;6.994;2023-12-29T11:18:14;100222.22;;;9.43;100.00
48553;BME280;34335;51.566;6.994;2023-12-29T11:20:41;100210.09;;;9.47;100.00
48553;BME280;34335;51.566;6.994;2023-12-29T11:23:07;100224.78;;;9.51;100.00
48553;BME280;34335;51.566;6.994;2023-12-29T11:25:34;100230.84;;;9.51;100.00
48553;BME280;34335;51.566;6.994;2023-12-29T11:28:00;100223.03;;;9.56;100.00
48553;BME280;34335;51.566;6.994;2023-12-29T11:30:26;100199.69;;;9.56;100.00
48553;BME280;34335;51.566;6.994;2023-12-29T11:32:57;100208.28;;;9.58;100.00
48553;BME280;34335;51.566;6.994;2023-12-29T11:35:33;100209.13;;;9.62;100.00
48553;BME280;34335;51.566;6.994;2023-12-29T11:40:55;100203.09;;;9.61;100.00
48553;BME280;34335;51.566;6.994;2023-12-29T11:43:22;100210.00;;;9.64;100.00
48553;BME280;34335;51.566;6.994;2023-12-29T11:45:49;100204.84;;;9.62;100.00
48553;BME280;34335;51.566;6.994;2023-12-29T11:48:53;100191.84;;;9.65;100.00
48553;BME280;34335;51.566;6.994;2023-12-29T11:51:37;100200.47;;;9.66;100.00
48553;BME280;34335;51.566;6.994;2023-12-29T11:54:05;100190.97;;;9.66;100.00
48553;BME280;34335;51.566;6.994;2023-12-29T11:56:40;100198.75;;;9.71;100.00
48553;BME280;34335;51.566;6.994;2023-12-29T11:59:18;100206.50;;;9.76;100.00
48553;BME280;34335;51.566;6.994;2023-12-29T12:01:47;100187.47;;;9.74;100.00
48553;BME280;34335;51.566;6.994;2023-12-29T12:04:37;100174.44;;;9.77;100.00
48553;BME280;34335;51.566;6.994;2023-12-29T12:09:46;100193.53;;;9.76;100.00
48553;BME280;34335;51.566;6.994;2023-12-29T12:12:14;100189.19;;;9.75;100.00
48553;BME280;34335;51.566;6.994;2023-12-29T12:14:59;100185.72;;;9.74;100.00
48553;BME280;34335;51.566;6.994;2023-12-29T12:17:33;100192.66;;;9.74;100.00
48553;BME280;34335;51.566;6.994;2023-12-29T12:20:07;100197.84;;;9.71;100.00
48553;BME280;34335;51.566;6.994;2023-12-29T12:22:34;100212.56;;;9.75;100.00
48553;BME280;34335;51.566;6.994;2023-12-29T12:25:00;100194.38;;;9.75;100.00
48553;BME280;34335;51.566;6.994;2023-12-29T12:27:27;100187.47;;;9.74;100.00
48553;BME280;34335;51.566;6.994;2023-12-29T12:29:53;100195.22;;;9.77;100.00
48553;BME280;34335;51.566;6.994;2023-12-29T12:32:21;100198.66;;;9.79;100.00
48553;BME280;34335;51.566;6.994;2023-12-29T12:34:47;100183.94;;;9.82;100.00
48553;BME280;34335;51.566;6.994;2023-12-29T12:37:12;100177.03;;;9.83;100.00
48553;BME280;34335;51.566;6.994;2023-12-29T12:39:40;100183.94;;;9.84;100.00
48553;BME280;34335;51.566;6.994;2023-12-29T12:42:06;100184.78;;;9.81;100.00
48553;BME280;34335;51.566;6.994;2023-12-29T12:44:31;100183.09;;;9.80;100.00
48553;BME280;34335;51.566;6.994;2023-12-29T12:46:58;100183.09;;;9.79;100.00
48553;BME280;34335;51.566;6.994;2023-12-29T12:49:24;100180.50;;;9.77;100.00
48553;BME280;34335;51.566;6.994;2023-12-29T12:51:49;100162.34;;;9.77;100.00
48553;BME280;34335;51.566;6.994;2023-12-29T12:54:19;100172.78;;;9.68;100.00
48553;BME280;34335;51.566;6.994;2023-12-29T12:56:45;100186.63;;;9.64;100.00